Orange Beach, Alabama
Current Conditions -  °F | °C
As of 5:55 PM on Saturday 20 Dec 2014 (Local Time) from KJKA Reporting Station
Overcast Overcast  
Wind Chill: 52°   Ceiling: 2000
Heat Index: 52°   Visibility: 10mi
Dew Point: 49°   Wind: 7mph
Humidity: 90%   Direction: 20°NNE
Pressure: 30.11"   Gusts: NA
Location:  30.29°N, 87.57°W
Report Text: KJKA 202355Z AUTO 02006KT 10SM OVC020 11/10 A3011 RMK AO2 T01100095 10120 20108
Loading
Personal Weather Stations






























Interactive Weather Map New forecast layout! Learn more

10-Day Weather Forecast

Advertisements
Track Severe Weather on mobile